Time;durP1;ratioP1;P1;durP2;ratioP2;P2;SDS_P1;SDS_P2;PMS_P1;PMS_P2;Temp;Humidity;BMP_temperature;BMP_pressure;BME280_temperature;BME280_humidity;BME280_pressure;Samples;Min_cycle;Max_cycle;Signal;HPM_P1;HPM_P2
2023/03/25 00:01:07;;;;;;;35.65;18.40;;;;;;;;;;5015098;28;20485;-71
2023/03/25 00:03:40;;;;;;;32.95;17.55;;;;;;;;;;5012394;28;20049;-71
2023/03/25 00:06:07;;;;;;;26.17;16.20;;;;;;;;;;5013543;28;20080;-71
2023/03/25 00:08:33;;;;;;;26.13;17.48;;;;;;;;;;5012679;28;20022;-71
2023/03/25 00:11:00;;;;;;;30.02;16.98;;;;;;;;;;5013523;28;20034;-71
2023/03/25 00:13:26;;;;;;;32.13;17.08;;;;;;;;;;5013635;28;20037;-71
2023/03/25 00:15:57;;;;;;;36.28;17.75;;;;;;;;;;4999616;28;20060;-71
2023/03/25 00:18:24;;;;;;;28.00;18.42;;;;;;;;;;5035097;28;20037;-71
2023/03/25 00:20:52;;;;;;;33.60;20.40;;;;;;;;;;5031243;28;20021;-71
2023/03/25 00:23:19;;;;;;;34.80;23.42;;;;;;;;;;5013383;28;20415;-71
2023/03/25 00:25:46;;;;;;;32.95;22.70;;;;;;;;;;5013209;28;20030;-71
2023/03/25 00:28:13;;;;;;;37.47;25.00;;;;;;;;;;5013418;28;20447;-71
2023/03/25 00:30:39;;;;;;;34.35;22.70;;;;;;;;;;5012970;28;20088;-72
2023/03/25 00:33:05;;;;;;;34.33;22.58;;;;;;;;;;5013114;28;20065;-71
2023/03/25 00:35:31;;;;;;;37.45;22.25;;;;;;;;;;4995481;28;20057;-71
2023/03/25 00:37:59;;;;;;;29.40;20.73;;;;;;;;;;5029636;28;20033;-71
2023/03/25 00:40:27;;;;;;;29.05;20.27;;;;;;;;;;5014811;28;20029;-71
2023/03/25 00:42:53;;;;;;;34.20;20.73;;;;;;;;;;5032147;28;20404;-71
2023/03/25 00:45:19;;;;;;;32.08;20.48;;;;;;;;;;5032050;28;20062;-71
2023/03/25 00:47:45;;;;;;;29.15;18.95;;;;;;;;;;4998704;28;20129;-71
2023/03/25 00:50:11;;;;;;;32.72;18.90;;;;;;;;;;4994929;28;20113;-71
2023/03/25 00:52:37;;;;;;;30.90;20.15;;;;;;;;;;5010077;28;20104;-71
2023/03/25 00:55:04;;;;;;;32.85;22.08;;;;;;;;;;5032799;28;20069;-71
2023/03/25 00:57:30;;;;;;;40.80;23.35;;;;;;;;;;5014189;28;20037;-71
2023/03/25 00:59:55;;;;;;;38.80;22.67;;;;;;;;;;5030871;28;20053;-71
2023/03/25 01:02:22;;;;;;;42.20;23.60;;;;;;;;;;4996620;28;20148;-71
2023/03/25 01:04:49;;;;;;;40.05;22.27;;;;;;;;;;4995029;28;20033;-71
2023/03/25 01:07:19;;;;;;;32.90;21.23;;;;;;;;;;5010806;28;20109;-71
2023/03/25 01:09:46;;;;;;;36.22;22.55;;;;;;;;;;5012335;28;20403;-71
2023/03/25 01:12:13;;;;;;;30.65;20.33;;;;;;;;;;5012478;28;20022;-71
2023/03/25 01:14:40;;;;;;;34.63;22.63;;;;;;;;;;4994973;28;20026;-71
2023/03/25 01:17:07;;;;;;;35.60;21.70;;;;;;;;;;5027579;28;20029;-71
2023/03/25 01:19:33;;;;;;;34.40;21.73;;;;;;;;;;5014107;28;20419;-70
2023/03/25 01:21:59;;;;;;;35.22;21.33;;;;;;;;;;5024446;28;20210;-70
2023/03/25 01:24:25;;;;;;;38.83;20.95;;;;;;;;;;5012320;28;20033;-70
2023/03/25 01:26:51;;;;;;;31.05;20.77;;;;;;;;;;5012388;28;20022;-70
2023/03/25 01:29:18;;;;;;;30.77;20.70;;;;;;;;;;4994370;28;20036;-70
2023/03/25 01:31:44;;;;;;;36.97;21.95;;;;;;;;;;5002236;28;20507;-70
2023/03/25 01:34:11;;;;;;;37.75;21.52;;;;;;;;;;4994740;28;20080;-70
2023/03/25 01:36:38;;;;;;;36.70;20.77;;;;;;;;;;4998246;28;20025;-71
2023/03/25 01:39:06;;;;;;;32.65;20.48;;;;;;;;;;5013700;28;20359;-71
2023/03/25 01:41:35;;;;;;;34.88;21.40;;;;;;;;;;5013872;28;20029;-71
2023/03/25 01:44:07;;;;;;;31.25;19.40;;;;;;;;;;5030562;28;20044;-71
2023/03/25 01:46:34;;;;;;;30.15;20.08;;;;;;;;;;5030551;28;20042;-71
2023/03/25 01:49:03;;;;;;;29.48;18.08;;;;;;;;;;5014110;28;20025;-71
2023/03/25 01:51:34;;;;;;;28.98;18.38;;;;;;;;;;5031895;28;20105;-70
2023/03/25 01:54:01;;;;;;;30.42;19.05;;;;;;;;;;5014407;28;20531;-71
2023/03/25 01:56:32;;;;;;;30.02;20.00;;;;;;;;;;4997214;28;20555;-71
2023/03/25 01:59:01;;;;;;;31.10;18.70;;;;;;;;;;5030439;28;20033;-71
2023/03/25 02:01:27;;;;;;;28.80;20.05;;;;;;;;;;5004738;28;20476;-70
2023/03/25 02:04:01;;;;;;;29.17;19.38;;;;;;;;;;5014155;28;20092;-70
2023/03/25 02:06:42;;;;;;;33.92;20.35;;;;;;;;;;5031755;28;20025;-71
2023/03/25 02:09:10;;;;;;;30.90;20.60;;;;;;;;;;5030416;28;20057;-70
2023/03/25 02:11:37;;;;;;;28.48;19.38;;;;;;;;;;5030500;28;20026;-71
2023/03/25 02:14:07;;;;;;;29.02;20.10;;;;;;;;;;4994993;28;20052;-71
2023/03/25 02:17:08;;;;;;;30.13;20.73;;;;;;;;;;5021813;28;20025;-71
2023/03/25 02:19:36;;;;;;;31.85;19.27;;;;;;;;;;4993889;28;20033;-71
2023/03/25 02:22:40;;;;;;;29.35;19.02;;;;;;;;;;5011858;28;20435;-70
2023/03/25 02:25:12;;;;;;;32.45;19.95;;;;;;;;;;4994003;28;20128;-71
2023/03/25 02:28:24;;;;;;;30.98;20.63;;;;;;;;;;5011487;28;20463;-71
2023/03/25 02:31:01;;;;;;;27.60;17.60;;;;;;;;;;4917515;29;20035;-71
2023/03/25 02:33:46;;;;;;;29.95;18.85;;;;;;;;;;5008807;28;20240;-71
2023/03/25 02:36:32;;;;;;;29.58;18.80;;;;;;;;;;5011983;28;20554;-70
2023/03/25 02:39:06;;;;;;;28.38;19.65;;;;;;;;;;5011257;28;20459;-70
2023/03/25 02:41:38;;;;;;;26.85;19.02;;;;;;;;;;4993984;28;20041;-70
2023/03/25 02:44:13;;;;;;;26.20;17.90;;;;;;;;;;4993806;28;20109;-70
2023/03/25 02:46:50;;;;;;;30.20;19.13;;;;;;;;;;5026522;28;20522;-71
2023/03/25 02:49:25;;;;;;;28.80;18.05;;;;;;;;;;5029839;28;20450;-70
2023/03/25 02:51:58;;;;;;;26.90;19.08;;;;;;;;;;5031108;28;20041;-70
2023/03/25 02:54:26;;;;;;;27.90;20.43;;;;;;;;;;5031349;28;20030;-70
2023/03/25 02:56:56;;;;;;;34.13;20.80;;;;;;;;;;5013234;28;20538;-71
2023/03/25 02:59:31;;;;;;;30.20;19.40;;;;;;;;;;5013106;28;20040;-71
2023/03/25 03:02:02;;;;;;;26.10;17.67;;;;;;;;;;5014065;28;20094;-70
2023/03/25 03:04:28;;;;;;;29.13;18.13;;;;;;;;;;4993670;28;20030;-70
2023/03/25 03:06:56;;;;;;;28.10;16.27;;;;;;;;;;5011010;28;20025;-70
2023/03/25 03:09:42;;;;;;;29.75;18.10;;;;;;;;;;5014528;28;20157;-71
2023/03/25 03:12:19;;;;;;;25.27;16.90;;;;;;;;;;5014057;28;20065;-70
2023/03/25 03:15:20;;;;;;;24.92;17.63;;;;;;;;;;5013479;28;20121;-70
2023/03/25 03:17:56;;;;;;;24.52;16.65;;;;;;;;;;5006807;28;20045;-70
2023/03/25 03:21:05;;;;;;;28.38;17.90;;;;;;;;;;5014431;28;20088;-70
2023/03/25 03:23:45;;;;;;;32.00;21.45;;;;;;;;;;4915360;29;20044;-70
2023/03/25 03:26:16;;;;;;;26.50;17.10;;;;;;;;;;4989724;28;20077;-70
2023/03/25 03:29:19;;;;;;;31.52;17.40;;;;;;;;;;5022558;28;20523;-71
2023/03/25 03:31:51;;;;;;;32.55;19.45;;;;;;;;;;5023970;28;20491;-71
2023/03/25 03:34:54;;;;;;;29.63;18.87;;;;;;;;;;5034111;28;20376;-71
2023/03/25 03:37:31;;;;;;;28.58;18.73;;;;;;;;;;5024457;28;20068;-72
2023/03/25 03:39:57;;;;;;;29.33;19.45;;;;;;;;;;5034052;28;20036;-71
2023/03/25 03:42:35;;;;;;;29.20;19.15;;;;;;;;;;5034291;28;20479;-70
2023/03/25 03:45:14;;;;;;;26.08;17.20;;;;;;;;;;5034105;28;20034;-71
2023/03/25 03:47:46;;;;;;;27.25;17.00;;;;;;;;;;5034207;28;20061;-72
2023/03/25 03:50:35;;;;;;;32.58;16.30;;;;;;;;;;5033973;28;20069;-72
2023/03/25 03:53:14;;;;;;;26.25;15.88;;;;;;;;;;5034379;28;20442;-71
2023/03/25 03:55:45;;;;;;;29.27;18.67;;;;;;;;;;5033829;28;20109;-71
2023/03/25 03:58:21;;;;;;;31.83;18.60;;;;;;;;;;5033828;28;20053;-71
2023/03/25 04:01:03;;;;;;;32.03;18.20;;;;;;;;;;5033529;28;20509;-71
2023/03/25 04:03:37;;;;;;;26.20;15.70;;;;;;;;;;5015192;28;20037;-71
2023/03/25 04:06:19;;;;;;;26.02;15.82;;;;;;;;;;5012968;28;20038;-71
2023/03/25 04:08:57;;;;;;;29.80;17.33;;;;;;;;;;5012889;28;20045;-71
2023/03/25 04:11:32;;;;;;;27.25;17.65;;;;;;;;;;5013360;28;20041;-70
2023/03/25 04:13:59;;;;;;;25.77;16.70;;;;;;;;;;5013271;28;20091;-71
2023/03/25 04:16:25;;;;;;;30.45;19.48;;;;;;;;;;5013245;28;20026;-71
2023/03/25 04:18:52;;;;;;;31.40;18.70;;;;;;;;;;5012376;28;20091;-71
2023/03/25 04:21:19;;;;;;;35.05;20.15;;;;;;;;;;4994991;28;20389;-71
2023/03/25 04:23:45;;;;;;;40.28;20.15;;;;;;;;;;5011414;28;20045;-71
2023/03/25 04:26:12;;;;;;;28.95;18.48;;;;;;;;;;5012874;28;20022;-71
2023/03/25 04:28:43;;;;;;;32.33;19.90;;;;;;;;;;5013561;28;20403;-71
2023/03/25 04:31:14;;;;;;;31.67;19.92;;;;;;;;;;5016647;28;20514;-71
2023/03/25 04:33:47;;;;;;;26.42;17.30;;;;;;;;;;5006214;28;20038;-71
2023/03/25 04:36:14;;;;;;;26.93;17.87;;;;;;;;;;5013169;28;20038;-71
2023/03/25 04:38:44;;;;;;;27.83;16.85;;;;;;;;;;5013229;28;20053;-71
2023/03/25 04:41:11;;;;;;;25.05;16.23;;;;;;;;;;5003894;28;20088;-70
2023/03/25 04:43:38;;;;;;;23.80;16.35;;;;;;;;;;5023787;28;20033;-71
2023/03/25 04:46:04;;;;;;;25.27;16.50;;;;;;;;;;5012802;28;20479;-71
2023/03/25 04:48:34;;;;;;;23.92;16.08;;;;;;;;;;5012712;28;20080;-70
2023/03/25 04:51:02;;;;;;;22.70;15.15;;;;;;;;;;5013830;28;20042;-70
2023/03/25 04:53:28;;;;;;;29.58;16.65;;;;;;;;;;5012975;28;20022;-70
2023/03/25 04:55:55;;;;;;;23.63;17.13;;;;;;;;;;5011696;28;20025;-71
2023/03/25 04:58:21;;;;;;;23.85;15.60;;;;;;;;;;5010776;28;20068;-71
2023/03/25 05:00:49;;;;;;;24.45;15.55;;;;;;;;;;5013009;28;20070;-71
2023/03/25 05:03:16;;;;;;;23.70;15.98;;;;;;;;;;4995276;28;20060;-71
2023/03/25 05:05:42;;;;;;;20.45;14.10;;;;;;;;;;5012125;28;20049;-71
2023/03/25 05:08:10;;;;;;;21.02;14.40;;;;;;;;;;5007962;28;20018;-72
2023/03/25 05:10:37;;;;;;;23.05;14.38;;;;;;;;;;5013638;28;20045;-71
2023/03/25 05:13:06;;;;;;;20.23;13.15;;;;;;;;;;5013253;28;20034;-71
2023/03/25 05:15:39;;;;;;;20.95;13.82;;;;;;;;;;5012917;28;20026;-71
2023/03/25 05:18:09;;;;;;;27.65;14.65;;;;;;;;;;5005443;28;20049;-71
2023/03/25 05:20:38;;;;;;;26.25;17.23;;;;;;;;;;5004791;28;20050;-71
2023/03/25 05:23:14;;;;;;;22.20;16.15;;;;;;;;;;5012842;28;20029;-71
2023/03/25 05:25:41;;;;;;;19.50;14.40;;;;;;;;;;5013221;28;20510;-70
2023/03/25 05:28:12;;;;;;;19.83;14.02;;;;;;;;;;5013027;28;20432;-70
2023/03/25 05:30:44;;;;;;;18.83;12.55;;;;;;;;;;5012078;28;20415;-71
2023/03/25 05:33:12;;;;;;;17.30;12.02;;;;;;;;;;5012779;28;20036;-70
2023/03/25 05:35:38;;;;;;;23.05;15.70;;;;;;;;;;5012747;28;20038;-71
2023/03/25 05:38:07;;;;;;;19.15;14.55;;;;;;;;;;5012709;28;20484;-70
2023/03/25 05:40:33;;;;;;;20.80;14.38;;;;;;;;;;5012047;28;20029;-70
2023/03/25 05:42:59;;;;;;;20.33;13.32;;;;;;;;;;5012995;28;20039;-70
2023/03/25 05:45:25;;;;;;;19.08;14.35;;;;;;;;;;5012582;28;20032;-70
2023/03/25 05:47:51;;;;;;;23.50;15.15;;;;;;;;;;5012388;28;20411;-71
2023/03/25 05:50:17;;;;;;;22.60;14.52;;;;;;;;;;5012276;28;20018;-71
2023/03/25 05:52:44;;;;;;;17.98;14.15;;;;;;;;;;4994946;28;20049;-75
2023/03/25 05:55:14;;;;;;;20.38;14.55;;;;;;;;;;5012691;28;20480;-74
2023/03/25 05:57:40;;;;;;;22.30;15.18;;;;;;;;;;4994892;28;20038;-73
2023/03/25 06:00:07;;;;;;;18.55;12.68;;;;;;;;;;5012038;28;20502;-75
2023/03/25 06:02:41;;;;;;;19.13;13.43;;;;;;;;;;5012125;28;20034;-74
2023/03/25 06:05:12;;;;;;;18.42;13.35;;;;;;;;;;5012293;28;20042;-75
2023/03/25 06:07:47;;;;;;;18.25;13.15;;;;;;;;;;5012527;28;20045;-74
2023/03/25 06:10:16;;;;;;;16.20;12.60;;;;;;;;;;5012173;28;20041;-75
2023/03/25 06:12:45;;;;;;;16.75;12.10;;;;;;;;;;5012401;28;20076;-75
2023/03/25 06:15:13;;;;;;;27.00;14.18;;;;;;;;;;5012594;28;20539;-75
2023/03/25 06:17:39;;;;;;;18.55;14.38;;;;;;;;;;5012334;28;20089;-75
2023/03/25 06:20:12;;;;;;;20.20;13.10;;;;;;;;;;5012041;28;20542;-75
2023/03/25 06:22:41;;;;;;;20.13;13.35;;;;;;;;;;4995289;28;20068;-74
2023/03/25 06:25:08;;;;;;;20.63;15.82;;;;;;;;;;5011983;28;20049;-75
2023/03/25 06:27:39;;;;;;;21.00;16.65;;;;;;;;;;5012035;28;20046;-74
2023/03/25 06:30:10;;;;;;;24.95;17.35;;;;;;;;;;5011958;28;20038;-73
2023/03/25 06:32:36;;;;;;;20.63;15.02;;;;;;;;;;5012083;28;20053;-74
2023/03/25 06:35:06;;;;;;;23.83;17.02;;;;;;;;;;5011975;28;20117;-74
2023/03/25 06:37:32;;;;;;;21.85;16.63;;;;;;;;;;5011907;28;20100;-75
2023/03/25 06:40:01;;;;;;;26.63;16.42;;;;;;;;;;4994728;28;20026;-74
2023/03/25 06:42:28;;;;;;;24.30;16.52;;;;;;;;;;4996274;28;20459;-75
2023/03/25 06:45:12;;;;;;;21.27;15.57;;;;;;;;;;5016104;28;20032;-74
2023/03/25 06:47:45;;;;;;;23.90;16.07;;;;;;;;;;4998414;28;20041;-74
2023/03/25 06:50:10;;;;;;;23.60;16.40;;;;;;;;;;4997255;28;20279;-74
2023/03/25 06:52:36;;;;;;;26.50;19.40;;;;;;;;;;5015087;28;20387;-75
2023/03/25 06:55:03;;;;;;;25.02;18.08;;;;;;;;;;5027585;28;20368;-74
2023/03/25 06:57:29;;;;;;;27.00;18.17;;;;;;;;;;5036331;28;20029;-74
2023/03/25 06:59:54;;;;;;;27.48;18.20;;;;;;;;;;5018485;28;20041;-73
2023/03/25 07:02:21;;;;;;;26.40;18.38;;;;;;;;;;5036416;28;20033;-77
2023/03/25 07:04:47;;;;;;;29.42;19.23;;;;;;;;;;5037640;28;20041;-75
2023/03/25 07:07:13;;;;;;;29.08;18.95;;;;;;;;;;5018642;28;20391;-76
2023/03/25 07:09:38;;;;;;;26.20;18.38;;;;;;;;;;5037774;28;20525;-74
2023/03/25 07:12:04;;;;;;;29.52;19.45;;;;;;;;;;5038275;28;20079;-75
2023/03/25 07:14:30;;;;;;;25.88;16.92;;;;;;;;;;5037202;28;20110;-75
2023/03/25 07:16:56;;;;;;;27.70;17.42;;;;;;;;;;5035902;28;20483;-74
2023/03/25 07:19:22;;;;;;;27.80;17.58;;;;;;;;;;5035352;28;20099;-71
2023/03/25 07:21:47;;;;;;;25.05;17.38;;;;;;;;;;5035242;28;20109;-72
2023/03/25 07:24:13;;;;;;;25.38;18.08;;;;;;;;;;5017316;28;20037;-73
2023/03/25 07:26:39;;;;;;;27.90;19.67;;;;;;;;;;5034717;28;20029;-73
2023/03/25 07:29:05;;;;;;;32.78;19.58;;;;;;;;;;5034564;28;20499;-71
2023/03/25 07:31:30;;;;;;;30.38;20.70;;;;;;;;;;5033544;28;20025;-72
2023/03/25 07:33:58;;;;;;;30.15;20.45;;;;;;;;;;5013679;28;20058;-71
2023/03/25 07:36:25;;;;;;;33.03;21.98;;;;;;;;;;5014232;28;20022;-72
2023/03/25 07:38:52;;;;;;;32.65;21.90;;;;;;;;;;4997028;28;20038;-72
2023/03/25 07:41:17;;;;;;;34.15;22.27;;;;;;;;;;5014302;28;20048;-72
2023/03/25 07:44:00;;;;;;;32.42;21.52;;;;;;;;;;4996716;28;20096;-72
2023/03/25 07:46:29;;;;;;;30.33;21.23;;;;;;;;;;4996970;28;20523;-71
2023/03/25 07:48:55;;;;;;;30.10;21.52;;;;;;;;;;5010795;28;20371;-71
2023/03/25 07:51:21;;;;;;;28.88;20.08;;;;;;;;;;5013318;28;20025;-71
2023/03/25 07:53:46;;;;;;;27.20;19.95;;;;;;;;;;5019065;28;20030;-71
2023/03/25 07:56:13;;;;;;;26.67;19.38;;;;;;;;;;5012440;28;20014;-71
2023/03/25 07:58:39;;;;;;;30.70;21.08;;;;;;;;;;5012867;28;20033;-74
2023/03/25 08:01:07;;;;;;;29.33;19.85;;;;;;;;;;5012941;28;20021;-70
2023/03/25 08:03:34;;;;;;;31.60;20.05;;;;;;;;;;5013100;28;20052;-72
2023/03/25 08:06:01;;;;;;;29.08;19.67;;;;;;;;;;5012395;28;20471;-72
2023/03/25 08:08:30;;;;;;;30.10;21.27;;;;;;;;;;5012860;28;20038;-72
2023/03/25 08:10:56;;;;;;;32.00;21.33;;;;;;;;;;5012927;28;20026;-71
2023/03/25 08:13:23;;;;;;;30.45;20.52;;;;;;;;;;5011460;28;20033;-72
2023/03/25 08:15:48;;;;;;;28.17;20.80;;;;;;;;;;5016584;28;20079;-71
2023/03/25 08:18:14;;;;;;;27.88;20.27;;;;;;;;;;4995775;28;20120;-71
2023/03/25 08:20:40;;;;;;;31.92;21.30;;;;;;;;;;5011152;28;20084;-72
2023/03/25 08:23:09;;;;;;;28.27;20.85;;;;;;;;;;5006498;28;20037;-72
2023/03/25 08:25:39;;;;;;;30.08;20.73;;;;;;;;;;5030834;28;20218;-71
2023/03/25 08:28:05;;;;;;;33.17;20.27;;;;;;;;;;5026933;28;20026;-72
2023/03/25 08:30:37;;;;;;;31.15;20.80;;;;;;;;;;5010282;28;20021;-74
2023/03/25 08:33:05;;;;;;;29.92;21.45;;;;;;;;;;5006996;28;20112;-74
2023/03/25 08:35:37;;;;;;;30.02;20.17;;;;;;;;;;5011658;28;20488;-72
2023/03/25 08:38:06;;;;;;;29.33;21.83;;;;;;;;;;5004668;28;20044;-72
2023/03/25 08:40:34;;;;;;;28.20;21.00;;;;;;;;;;5010503;28;20029;-72
2023/03/25 08:43:03;;;;;;;28.77;20.63;;;;;;;;;;5012780;28;20022;-72
2023/03/25 08:45:35;;;;;;;31.58;21.27;;;;;;;;;;5011777;28;20112;-73
2023/03/25 08:48:03;;;;;;;32.38;21.20;;;;;;;;;;5012423;28;20042;-73
2023/03/25 08:50:29;;;;;;;30.20;20.80;;;;;;;;;;5012484;28;20030;-71
2023/03/25 08:52:57;;;;;;;31.38;19.23;;;;;;;;;;5011558;28;20048;-72
2023/03/25 08:55:24;;;;;;;28.08;20.63;;;;;;;;;;5012359;28;20550;-71
2023/03/25 08:57:50;;;;;;;29.75;20.88;;;;;;;;;;5012324;28;20068;-71
2023/03/25 09:00:17;;;;;;;32.00;20.33;;;;;;;;;;4993132;28;20089;-70
2023/03/25 09:02:43;;;;;;;31.50;20.20;;;;;;;;;;5010458;28;20144;-69
2023/03/25 09:05:10;;;;;;;29.08;20.50;;;;;;;;;;4992842;28;20112;-71
2023/03/25 09:07:37;;;;;;;29.92;20.27;;;;;;;;;;5012945;28;20078;-70
2023/03/25 09:10:05;;;;;;;28.35;20.67;;;;;;;;;;5031932;28;20040;-70
2023/03/25 09:12:31;;;;;;;28.55;21.17;;;;;;;;;;5032385;28;20025;-71
2023/03/25 09:14:56;;;;;;;27.38;19.98;;;;;;;;;;5031920;28;20427;-71
2023/03/25 09:17:22;;;;;;;28.10;21.02;;;;;;;;;;5013270;28;20037;-71
2023/03/25 09:19:48;;;;;;;33.83;23.50;;;;;;;;;;5010310;28;20087;-70
2023/03/25 09:22:14;;;;;;;30.52;22.52;;;;;;;;;;5007219;28;20108;-72
2023/03/25 09:24:40;;;;;;;29.65;19.58;;;;;;;;;;5012065;28;20021;-72
2023/03/25 09:27:06;;;;;;;26.45;18.85;;;;;;;;;;5012348;28;20108;-71
2023/03/25 09:29:32;;;;;;;29.20;19.88;;;;;;;;;;5010809;28;20608;-71
2023/03/25 09:31:58;;;;;;;23.75;17.80;;;;;;;;;;5030338;28;20105;-71
2023/03/25 09:34:25;;;;;;;26.17;19.40;;;;;;;;;;5021272;28;20033;-71
2023/03/25 09:36:52;;;;;;;30.35;19.05;;;;;;;;;;5014775;28;20032;-71
2023/03/25 09:39:19;;;;;;;28.23;20.85;;;;;;;;;;5030926;28;20033;-71
2023/03/25 09:41:53;;;;;;;26.60;19.98;;;;;;;;;;5030998;28;20029;-72
2023/03/25 09:44:34;;;;;;;27.75;19.17;;;;;;;;;;5031770;28;20033;-71
2023/03/25 09:47:02;;;;;;;23.65;16.42;;;;;;;;;;5032031;28;20059;-71
2023/03/25 09:49:38;;;;;;;27.30;19.10;;;;;;;;;;5031466;28;20035;-71
2023/03/25 09:52:06;;;;;;;29.48;19.10;;;;;;;;;;5030385;28;20052;-70
2023/03/25 09:54:36;;;;;;;33.47;21.90;;;;;;;;;;5032008;28;20566;-72
2023/03/25 09:57:07;;;;;;;30.08;21.63;;;;;;;;;;5031377;28;20040;-72
2023/03/25 09:59:42;;;;;;;32.22;21.65;;;;;;;;;;5031345;28;20120;-71
2023/03/25 10:02:32;;;;;;;29.38;21.80;;;;;;;;;;5031244;28;20486;-72
2023/03/25 10:05:12;;;;;;;31.23;20.92;;;;;;;;;;5017005;28;20061;-71
2023/03/25 10:08:12;;;;;;;26.23;18.55;;;;;;;;;;5031729;28;20033;-71
2023/03/25 10:10:50;;;;;;;29.67;16.15;;;;;;;;;;5031162;28;20124;-71
2023/03/25 10:13:34;;;;;;;20.85;15.32;;;;;;;;;;5031472;28;20045;-70
2023/03/25 10:16:08;;;;;;;23.80;15.90;;;;;;;;;;5025885;28;20054;-70
2023/03/25 10:18:50;;;;;;;22.92;16.25;;;;;;;;;;5011733;28;20046;-70
2023/03/25 10:21:23;;;;;;;21.17;14.13;;;;;;;;;;5011620;28;20033;-70
2023/03/25 10:23:59;;;;;;;18.73;13.90;;;;;;;;;;5011053;28;20038;-70
2023/03/25 10:26:39;;;;;;;17.58;11.52;;;;;;;;;;5011803;28;20038;-71
2023/03/25 10:29:20;;;;;;;18.73;12.20;;;;;;;;;;5011302;28;20088;-69
2023/03/25 10:31:53;;;;;;;19.92;12.38;;;;;;;;;;5011661;28;20524;-70
2023/03/25 10:34:22;;;;;;;;;;;;;;;;;;5011984;28;20037;-69
2023/03/25 10:36:59;;;;;;;16.63;12.27;;;;;;;;;;5011214;28;19916;-71
2023/03/25 10:39:37;;;;;;;20.95;12.00;;;;;;;;;;5011304;28;20046;-70
2023/03/25 10:42:38;;;;;;;13.88;9.35;;;;;;;;;;5011123;28;20034;-69
2023/03/25 10:45:15;;;;;;;10.68;7.82;;;;;;;;;;5011423;28;20030;-68
2023/03/25 10:47:43;;;;;;;13.65;6.93;;;;;;;;;;5011497;28;20459;-68
2023/03/25 10:50:16;;;;;;;8.65;6.40;;;;;;;;;;5010839;28;20494;-70
2023/03/25 10:52:42;;;;;;;;;;;;;;;;;;5011726;28;20042;-70
2023/03/25 10:55:27;;;;;;;9.30;7.72;;;;;;;;;;5011393;28;19909;-69
2023/03/25 10:57:55;;;;;;;9.45;7.20;;;;;;;;;;5010337;28;20460;-70
2023/03/25 11:00:23;;;;;;;13.55;8.13;;;;;;;;;;5014205;28;20049;-70
2023/03/25 11:02:49;;;;;;;10.48;7.82;;;;;;;;;;5010757;28;20080;-70
2023/03/25 11:05:18;;;;;;;9.75;8.32;;;;;;;;;;5011132;28;20029;-70
2023/03/25 11:07:50;;;;;;;10.93;7.38;;;;;;;;;;5010910;28;20053;-69
2023/03/25 11:10:21;;;;;;;26.92;17.88;;;;;;;;;;5010678;28;20124;-68
2023/03/25 11:12:52;;;;;;;22.85;13.57;;;;;;;;;;5010653;28;20449;-71
2023/03/25 11:15:25;;;;;;;10.23;7.65;;;;;;;;;;5010289;28;20042;-71
2023/03/25 11:18:26;;;;;;;14.53;7.70;;;;;;;;;;5010613;28;20038;-71
2023/03/25 11:20:59;;;;;;;8.88;7.35;;;;;;;;;;5010058;28;20029;-73
2023/03/25 11:23:30;;;;;;;9.20;7.53;;;;;;;;;;5010144;28;20444;-71
2023/03/25 11:26:12;;;;;;;10.98;7.30;;;;;;;;;;5010295;28;20045;-72
2023/03/25 11:28:45;;;;;;;12.93;8.60;;;;;;;;;;5012032;28;20113;-68
2023/03/25 11:31:22;;;;;;;15.13;8.52;;;;;;;;;;5014546;28;20032;-70
2023/03/25 11:34:09;;;;;;;13.15;8.82;;;;;;;;;;5014439;28;20553;-72
2023/03/25 11:37:00;;;;;;;13.15;7.40;;;;;;;;;;5014441;28;20026;-72
2023/03/25 11:39:33;;;;;;;8.82;7.78;;;;;;;;;;5013606;28;20037;-71
2023/03/25 11:42:19;;;;;;;10.95;8.48;;;;;;;;;;5013973;28;20100;-71
2023/03/25 11:44:51;;;;;;;10.88;5.97;;;;;;;;;;5013043;28;20052;-71
2023/03/25 11:47:24;;;;;;;16.45;10.43;;;;;;;;;;5012729;28;20034;-70
2023/03/25 11:49:51;;;;;;;10.98;7.70;;;;;;;;;;5013149;28;20518;-71
2023/03/25 11:52:21;;;;;;;8.73;6.90;;;;;;;;;;5021317;28;20029;-71
2023/03/25 11:54:47;;;;;;;8.50;6.30;;;;;;;;;;5033643;28;20124;-70
2023/03/25 11:57:19;;;;;;;10.60;7.28;;;;;;;;;;5016027;28;20025;-71
2023/03/25 11:59:46;;;;;;;9.27;7.00;;;;;;;;;;5033922;28;20044;-70
2023/03/25 12:02:28;;;;;;;7.93;6.38;;;;;;;;;;5016559;28;20038;-70
2023/03/25 12:04:59;;;;;;;11.55;8.65;;;;;;;;;;5034029;28;20056;-71
2023/03/25 12:07:25;;;;;;;10.05;5.97;;;;;;;;;;5033333;28;20037;-70
2023/03/25 12:10:04;;;;;;;7.95;5.60;;;;;;;;;;5033639;28;20033;-72
2023/03/25 12:12:36;;;;;;;8.52;5.70;;;;;;;;;;5033451;28;20040;-71
2023/03/25 12:15:10;;;;;;;7.88;5.68;;;;;;;;;;5033806;28;20102;-72
2023/03/25 12:17:45;;;;;;;6.05;4.80;;;;;;;;;;5013152;28;20043;-70
2023/03/25 12:20:41;;;;;;;8.60;5.40;;;;;;;;;;5008075;28;20100;-72
2023/03/25 12:23:26;;;;;;;6.90;5.25;;;;;;;;;;5013823;28;20037;-71
2023/03/25 12:26:09;;;;;;;9.13;5.75;;;;;;;;;;5013494;28;20053;-71
2023/03/25 12:28:38;;;;;;;7.20;5.22;;;;;;;;;;5013584;28;20042;-71
2023/03/25 12:31:19;;;;;;;7.35;5.05;;;;;;;;;;5015249;28;20104;-71
2023/03/25 12:33:56;;;;;;;7.78;5.13;;;;;;;;;;5033423;28;20033;-71
2023/03/25 12:36:54;;;;;;;6.47;5.30;;;;;;;;;;5018562;28;20034;-70
2023/03/25 12:39:28;;;;;;;8.10;4.95;;;;;;;;;;5013136;28;20045;-72
2023/03/25 12:42:15;;;;;;;6.28;4.80;;;;;;;;;;5013345;28;20050;-71
2023/03/25 12:45:23;;;;;;;6.88;5.15;;;;;;;;;;5012925;28;20037;-70
2023/03/25 12:47:48;;;;;;;7.15;5.00;;;;;;;;;;5006155;28;20041;-70
2023/03/25 12:50:30;;;;;;;8.85;5.10;;;;;;;;;;5013107;28;20026;-71
2023/03/25 12:53:28;;;;;;;6.95;4.80;;;;;;;;;;5012911;28;20502;-71
2023/03/25 12:56:15;;;;;;;8.07;4.97;;;;;;;;;;4992810;28;20042;-71
2023/03/25 12:58:56;;;;;;;5.68;4.90;;;;;;;;;;5005024;28;20038;-70
2023/03/25 13:01:41;;;;;;;6.30;5.20;;;;;;;;;;5013036;28;20034;-71
2023/03/25 13:04:32;;;;;;;9.50;7.32;;;;;;;;;;4994899;28;20046;-70
2023/03/25 13:07:01;;;;;;;9.88;7.43;;;;;;;;;;5012688;28;20045;-71
2023/03/25 13:09:33;;;;;;;11.15;6.53;;;;;;;;;;5011773;28;20507;-70
2023/03/25 13:12:10;;;;;;;6.00;4.65;;;;;;;;;;5011633;28;20082;-70
2023/03/25 13:14:42;;;;;;;5.60;4.57;;;;;;;;;;5012060;28;20042;-70
2023/03/25 13:17:16;;;;;;;6.05;4.78;;;;;;;;;;5011584;28;20042;-70
2023/03/25 13:19:43;;;;;;;6.45;4.13;;;;;;;;;;5011464;28;20559;-71
2023/03/25 13:22:33;;;;;;;6.95;4.60;;;;;;;;;;4995213;28;20024;-71
2023/03/25 13:25:07;;;;;;;8.73;6.00;;;;;;;;;;5012612;28;20527;-71
2023/03/25 13:27:38;;;;;;;8.73;6.80;;;;;;;;;;5012882;28;20555;-71
2023/03/25 13:30:13;;;;;;;15.90;6.00;;;;;;;;;;4995412;28;20041;-71
2023/03/25 13:32:49;;;;;;;5.55;4.32;;;;;;;;;;5012833;28;20159;-71
2023/03/25 13:35:48;;;;;;;14.68;10.63;;;;;;;;;;5013099;28;20033;-71
2023/03/25 13:38:32;;;;;;;6.78;4.43;;;;;;;;;;5012488;28;20041;-71
2023/03/25 13:41:13;;;;;;;7.05;4.45;;;;;;;;;;5007060;28;20034;-72
2023/03/25 13:43:40;;;;;;;5.53;3.63;;;;;;;;;;5012779;28;20068;-71
2023/03/25 13:46:14;;;;;;;5.43;4.05;;;;;;;;;;5012018;28;20025;-72
2023/03/25 13:48:50;;;;;;;4.95;4.07;;;;;;;;;;5012371;28;20026;-71
2023/03/25 13:51:15;;;;;;;6.20;4.38;;;;;;;;;;5011559;28;20399;-71
2023/03/25 13:53:56;;;;;;;7.93;5.18;;;;;;;;;;4994712;28;20117;-70
2023/03/25 13:56:56;;;;;;;5.28;3.90;;;;;;;;;;5012334;28;20105;-72
2023/03/25 13:59:52;;;;;;;4.90;3.95;;;;;;;;;;5012103;28;20412;-71
2023/03/25 14:02:38;;;;;;;5.22;4.50;;;;;;;;;;5012274;28;20057;-71
2023/03/25 14:05:42;;;;;;;5.40;4.05;;;;;;;;;;5012361;28;20045;-72
2023/03/25 14:08:20;;;;;;;5.88;3.90;;;;;;;;;;5009928;28;20377;-71
2023/03/25 14:11:04;;;;;;;5.65;3.75;;;;;;;;;;5007960;28;20026;-71
2023/03/25 14:13:49;;;;;;;6.18;3.95;;;;;;;;;;5004283;28;20041;-71
2023/03/25 14:16:18;;;;;;;8.63;4.10;;;;;;;;;;5011548;28;20372;-70
2023/03/25 14:19:00;;;;;;;5.95;4.25;;;;;;;;;;5003690;28;20079;-70
2023/03/25 14:21:31;;;;;;;6.57;5.38;;;;;;;;;;4994044;28;20030;-71
2023/03/25 14:24:23;;;;;;;9.05;5.65;;;;;;;;;;5011615;28;20026;-72
2023/03/25 14:26:56;;;;;;;6.93;5.47;;;;;;;;;;5006516;28;20049;-71
2023/03/25 14:29:37;;;;;;;7.72;5.20;;;;;;;;;;5034643;28;20076;-72
2023/03/25 14:32:24;;;;;;;7.40;5.95;;;;;;;;;;5011969;28;20474;-71
2023/03/25 14:34:50;;;;;;;10.13;6.38;;;;;;;;;;5010294;28;20038;-71
2023/03/25 14:37:27;;;;;;;10.38;5.82;;;;;;;;;;5011408;28;20029;-70
2023/03/25 14:39:56;;;;;;;8.77;6.32;;;;;;;;;;5001668;28;20065;-70
2023/03/25 14:42:25;;;;;;;9.57;6.90;;;;;;;;;;5011477;28;20030;-70
2023/03/25 14:44:55;;;;;;;10.07;7.22;;;;;;;;;;5010327;28;20045;-71
2023/03/25 14:47:21;;;;;;;8.18;6.70;;;;;;;;;;5011217;28;20488;-70
2023/03/25 14:50:21;;;;;;;8.77;6.75;;;;;;;;;;5010685;28;20072;-71
2023/03/25 14:53:11;;;;;;;8.02;5.55;;;;;;;;;;5006531;28;20151;-71
2023/03/25 14:55:44;;;;;;;7.78;5.85;;;;;;;;;;4993666;28;20069;-74